createdAt,value
2023-12-19T00:00:03.311Z,0.00
2023-12-19T00:01:03.087Z,0.00
2023-12-19T00:02:02.993Z,0.00
2023-12-19T00:03:03.020Z,0.00
2023-12-19T00:04:03.031Z,0.00
2023-12-19T00:05:02.981Z,0.00
2023-12-19T00:06:02.952Z,0.00
2023-12-19T00:07:02.269Z,0.00
2023-12-19T00:08:02.939Z,0.00
2023-12-19T00:09:02.923Z,0.00
2023-12-19T00:10:02.936Z,0.00
2023-12-19T00:11:02.893Z,0.00
2023-12-19T00:12:02.889Z,0.00
2023-12-19T00:13:04.232Z,0.00
2023-12-19T00:14:02.194Z,0.00
2023-12-19T00:15:02.854Z,0.00
2023-12-19T00:16:02.935Z,0.00
2023-12-19T00:17:02.160Z,0.00
2023-12-19T00:18:03.015Z,0.00
2023-12-19T00:19:02.979Z,0.00
2023-12-19T00:20:02.891Z,0.00
2023-12-19T00:21:04.073Z,0.00
2023-12-19T00:22:02.836Z,0.00
2023-12-19T00:23:02.112Z,0.00
2023-12-19T00:24:02.738Z,0.00
2023-12-19T00:25:02.232Z,0.00
2023-12-19T00:26:02.728Z,0.00
2023-12-19T00:27:02.723Z,0.00
2023-12-19T00:28:02.789Z,0.00
2023-12-19T00:29:02.040Z,0.00
2023-12-19T00:30:02.723Z,0.00
2023-12-19T00:31:02.744Z,0.00
2023-12-19T00:32:02.671Z,0.00
2023-12-19T00:33:02.741Z,0.00
2023-12-19T00:34:02.831Z,0.00
2023-12-19T00:35:02.751Z,0.00
2023-12-19T00:36:02.624Z,0.00
2023-12-19T00:37:02.656Z,0.00
2023-12-19T00:38:02.587Z,0.00
2023-12-19T00:39:02.597Z,0.00
2023-12-19T00:40:02.703Z,0.00
2023-12-19T00:41:02.582Z,0.00
2023-12-19T00:42:02.547Z,0.00
2023-12-19T00:43:02.679Z,0.00
2023-12-19T00:44:02.541Z,0.00
2023-12-19T00:45:02.550Z,0.00
2023-12-19T00:46:02.536Z,0.00
2023-12-19T00:47:02.496Z,0.00
2023-12-19T00:48:02.600Z,0.00
2023-12-19T00:49:02.581Z,0.00
2023-12-19T00:50:02.540Z,0.00
2023-12-19T00:51:02.461Z,0.00
2023-12-19T00:52:02.509Z,0.00
2023-12-19T00:53:02.441Z,0.00
2023-12-19T00:54:02.452Z,0.00
2023-12-19T00:55:02.610Z,0.00
2023-12-19T00:56:02.388Z,0.00
2023-12-19T00:57:02.378Z,0.00
2023-12-19T00:58:02.462Z,0.00
2023-12-19T00:59:02.388Z,0.00
2023-12-19T01:00:02.369Z,0.00
2023-12-19T01:01:02.422Z,0.00
2023-12-19T01:02:02.447Z,0.00
2023-12-19T01:03:02.336Z,0.00
2023-12-19T01:04:02.448Z,0.00
2023-12-19T01:05:02.438Z,0.00
2023-12-19T01:06:02.318Z,0.00
2023-12-19T01:07:02.326Z,0.00
2023-12-19T01:08:04.995Z,0.00
2023-12-19T01:09:02.320Z,0.00
2023-12-19T01:10:02.310Z,0.00
2023-12-19T01:11:02.264Z,0.00
2023-12-19T01:12:02.236Z,0.00
2023-12-19T01:13:04.123Z,0.00
2023-12-19T01:14:02.223Z,0.00
2023-12-19T01:15:01.555Z,0.00
2023-12-19T01:16:02.329Z,0.00
2023-12-19T01:17:02.192Z,0.00
2023-12-19T01:18:02.260Z,0.00
2023-12-19T01:19:02.255Z,0.00
2023-12-19T01:20:02.324Z,0.00
2023-12-19T01:21:01.472Z,0.00
2023-12-19T01:22:02.190Z,0.00
2023-12-19T01:23:01.426Z,0.00
2023-12-19T01:24:02.087Z,0.00
2023-12-19T01:25:02.200Z,0.00
2023-12-19T01:26:06.671Z,0.00
2023-12-19T01:27:03.080Z,0.00
2023-12-19T01:28:10.882Z,0.00
2023-12-19T01:29:03.030Z,0.00
2023-12-19T01:30:02.042Z,0.00
2023-12-19T01:31:02.090Z,0.00
2023-12-19T01:32:02.026Z,0.00
2023-12-19T01:33:02.067Z,0.00
2023-12-19T01:34:02.184Z,0.00
2023-12-19T01:35:02.020Z,0.00
2023-12-19T01:36:03.312Z,0.00
2023-12-19T01:37:01.356Z,0.00
2023-12-19T01:38:01.939Z,0.00
2023-12-19T01:39:01.946Z,0.00
2023-12-19T01:40:02.036Z,0.00
2023-12-19T01:41:01.240Z,0.00
2023-12-19T01:42:01.913Z,0.00
2023-12-19T01:43:01.913Z,0.00
2023-12-19T01:44:01.257Z,0.00
2023-12-19T01:45:01.892Z,0.00
2023-12-19T01:46:01.941Z,0.00
2023-12-19T01:47:01.854Z,0.00
2023-12-19T01:48:01.869Z,0.00
2023-12-19T01:49:01.334Z,0.00
2023-12-19T01:50:01.291Z,0.00
2023-12-19T01:51:01.813Z,0.00
2023-12-19T01:52:01.216Z,0.00
2023-12-19T01:53:01.798Z,0.00
2023-12-19T01:54:01.782Z,0.00
2023-12-19T01:55:01.108Z,0.00
2023-12-19T01:56:01.762Z,0.00
2023-12-19T01:57:01.732Z,0.00
2023-12-19T01:58:01.926Z,0.00
2023-12-19T01:59:01.053Z,0.00
2023-12-19T02:00:01.756Z,0.00
2023-12-19T02:01:01.754Z,0.00
2023-12-19T02:02:01.701Z,0.00
2023-12-19T02:03:01.764Z,0.00
2023-12-19T02:04:01.085Z,0.00
2023-12-19T02:05:01.059Z,0.00
2023-12-19T02:06:01.732Z,0.00
2023-12-19T02:07:02.427Z,0.00
2023-12-19T02:08:00.948Z,0.00
2023-12-19T02:09:01.626Z,0.00
2023-12-19T02:10:01.768Z,0.00
2023-12-19T02:11:01.581Z,0.00
2023-12-19T02:12:01.592Z,0.00
2023-12-19T02:13:01.676Z,0.00
2023-12-19T02:14:02.331Z,0.00
2023-12-19T02:15:01.577Z,0.00
2023-12-19T02:16:01.621Z,0.00
2023-12-19T02:17:01.536Z,0.00
2023-12-19T02:18:01.656Z,0.00
2023-12-19T02:19:00.895Z,0.00
2023-12-19T02:20:01.504Z,0.00
2023-12-19T02:21:01.492Z,0.00
2023-12-19T02:22:01.553Z,0.00
2023-12-19T02:23:01.483Z,0.00
2023-12-19T02:24:01.464Z,0.00
2023-12-19T02:25:01.497Z,0.00
2023-12-19T02:26:01.442Z,0.00
2023-12-19T02:27:01.429Z,0.00
2023-12-19T02:28:01.492Z,0.00
2023-12-19T02:29:00.754Z,0.00
2023-12-19T02:30:01.400Z,0.00
2023-12-19T02:31:01.532Z,0.00
2023-12-19T02:32:01.389Z,0.00
2023-12-19T02:33:01.401Z,0.00
2023-12-19T02:34:00.804Z,0.00
2023-12-19T02:35:01.348Z,0.00
2023-12-19T02:36:00.726Z,0.00
2023-12-19T02:37:01.423Z,0.00
2023-12-19T02:38:01.313Z,0.00
2023-12-19T02:39:01.287Z,0.00
2023-12-19T02:40:01.561Z,0.00
2023-12-19T02:41:01.303Z,0.00
2023-12-19T02:42:01.269Z,0.00
2023-12-19T02:43:01.319Z,0.00
2023-12-19T02:44:01.226Z,0.00
2023-12-19T02:45:01.296Z,0.00
2023-12-19T02:46:01.340Z,0.00
2023-12-19T02:47:00.530Z,0.00
2023-12-19T02:48:00.782Z,0.00
2023-12-19T02:49:01.258Z,0.00
2023-12-19T02:50:01.185Z,0.00
2023-12-19T02:51:02.431Z,0.00
2023-12-19T02:52:01.206Z,0.00
2023-12-19T02:53:01.144Z,0.00
2023-12-19T02:54:01.137Z,0.00
2023-12-19T02:55:01.323Z,0.00
2023-12-19T02:56:01.116Z,0.00
2023-12-19T02:57:01.091Z,0.00
2023-12-19T02:58:01.156Z,0.00
2023-12-19T02:59:01.087Z,0.00
2023-12-19T03:02:23.724Z,0.00
2023-12-19T03:03:23.069Z,0.00
2023-12-19T03:04:23.019Z,0.00
2023-12-19T03:05:22.962Z,0.00
2023-12-19T03:06:23.058Z,0.00
2023-12-19T03:07:22.919Z,0.00
2023-12-19T03:08:22.914Z,0.00
2023-12-19T03:09:22.920Z,0.00
2023-12-19T03:10:22.897Z,0.00
2023-12-19T03:11:22.862Z,0.00
2023-12-19T03:12:22.905Z,0.00
2023-12-19T03:13:22.866Z,0.00
2023-12-19T03:14:22.856Z,0.00
2023-12-19T03:15:22.892Z,0.00
2023-12-19T03:16:22.816Z,0.00
2023-12-19T03:17:22.962Z,0.00
2023-12-19T03:18:22.916Z,0.00
2023-12-19T03:19:22.865Z,0.00
2023-12-19T03:20:22.780Z,0.00
2023-12-19T03:21:22.791Z,0.00
2023-12-19T03:22:22.083Z,0.00
2023-12-19T03:23:22.785Z,0.00
2023-12-19T03:24:22.777Z,0.00
2023-12-19T03:25:22.075Z,0.00
2023-12-19T03:26:22.724Z,0.00
2023-12-19T03:27:22.759Z,0.00
2023-12-19T03:28:22.703Z,0.00
2023-12-19T03:29:22.082Z,0.00
2023-12-19T03:30:22.707Z,0.00
2023-12-19T03:31:22.753Z,0.00
2023-12-19T03:32:22.663Z,0.00
2023-12-19T03:33:22.677Z,0.00
2023-12-19T03:34:22.703Z,0.00
2023-12-19T03:35:22.632Z,0.00
2023-12-19T03:36:22.654Z,0.00
2023-12-19T03:37:22.612Z,0.00
2023-12-19T03:38:21.927Z,0.00
2023-12-19T03:39:22.616Z,0.00
2023-12-19T03:40:21.895Z,0.00
2023-12-19T03:41:22.587Z,0.00
2023-12-19T03:42:22.576Z,0.00
2023-12-19T03:43:22.565Z,0.00
2023-12-19T03:44:22.518Z,0.00
2023-12-19T03:45:22.617Z,0.00
2023-12-19T03:46:22.529Z,0.00
2023-12-19T03:47:21.818Z,0.00
2023-12-19T03:48:22.543Z,0.00
2023-12-19T03:49:22.620Z,0.00
2023-12-19T03:50:22.468Z,0.00
2023-12-19T03:51:22.495Z,0.00
2023-12-19T03:52:22.504Z,0.00
2023-12-19T03:53:21.838Z,0.00
2023-12-19T03:54:22.452Z,0.00
2023-12-19T03:55:22.420Z,0.00
2023-12-19T03:56:22.402Z,0.00
2023-12-19T03:57:22.420Z,0.00
2023-12-19T03:58:22.373Z,0.00
2023-12-19T03:59:22.384Z,0.00
2023-12-19T04:00:22.390Z,0.00
2023-12-19T04:01:22.425Z,0.00
2023-12-19T04:02:22.326Z,0.00
2023-12-19T04:03:22.368Z,0.00
2023-12-19T04:04:22.444Z,0.00
2023-12-19T04:05:22.318Z,0.00
2023-12-19T04:06:22.315Z,0.00
2023-12-19T04:07:22.276Z,0.00
2023-12-19T04:08:22.291Z,0.00
2023-12-19T04:09:22.294Z,0.00
2023-12-19T04:10:22.256Z,0.00
2023-12-19T04:11:22.242Z,0.00
2023-12-19T04:12:21.604Z,0.00
2023-12-19T04:13:22.223Z,0.00
2023-12-19T04:14:22.217Z,0.00
2023-12-19T04:15:22.234Z,0.00
2023-12-19T04:16:22.176Z,0.00
2023-12-19T04:17:22.223Z,0.00
2023-12-19T04:18:22.199Z,0.00
2023-12-19T04:19:22.210Z,0.00
2023-12-19T04:20:22.129Z,0.00
2023-12-19T04:21:22.208Z,0.00
2023-12-19T04:22:22.134Z,0.00
2023-12-19T04:23:22.121Z,0.00
2023-12-19T04:24:22.259Z,0.00
2023-12-19T04:25:22.095Z,0.00
2023-12-19T04:26:22.092Z,0.00
2023-12-19T04:27:21.477Z,0.00
2023-12-19T04:28:21.398Z,0.00
2023-12-19T04:29:21.384Z,0.00
2023-12-19T04:30:22.405Z,0.00
2023-12-19T04:31:21.471Z,0.00
2023-12-19T04:32:22.016Z,0.00
2023-12-19T04:33:22.165Z,0.00
2023-12-19T04:34:21.553Z,0.00
2023-12-19T04:35:21.975Z,0.00
2023-12-19T04:36:21.371Z,0.00
2023-12-19T04:37:21.969Z,0.00
2023-12-19T04:38:21.957Z,0.00
2023-12-19T04:39:21.336Z,0.00
2023-12-19T04:40:21.256Z,0.00
2023-12-19T04:41:21.934Z,0.00
2023-12-19T04:42:22.011Z,0.00
2023-12-19T04:43:21.906Z,0.00
2023-12-19T04:44:21.877Z,0.00
2023-12-19T04:45:21.273Z,0.00
2023-12-19T04:46:21.879Z,0.00
2023-12-19T04:47:21.876Z,0.00
2023-12-19T04:48:21.877Z,0.00
2023-12-19T04:49:21.232Z,0.00
2023-12-19T04:50:21.834Z,0.00
2023-12-19T04:51:21.882Z,0.00
2023-12-19T04:52:21.141Z,0.00
2023-12-19T04:53:21.786Z,0.00
2023-12-19T04:54:21.113Z,0.00
2023-12-19T04:55:21.778Z,0.00
2023-12-19T04:56:21.089Z,0.00
2023-12-19T04:57:21.109Z,0.00
2023-12-19T04:58:21.733Z,0.00
2023-12-19T04:59:21.756Z,0.00
2023-12-19T05:00:21.761Z,0.00
2023-12-19T05:01:21.914Z,0.00
2023-12-19T05:02:21.690Z,0.00
2023-12-19T05:03:21.875Z,0.00
2023-12-19T05:04:21.717Z,0.00
2023-12-19T05:05:21.695Z,0.00
2023-12-19T05:06:21.743Z,0.00
2023-12-19T05:07:21.636Z,0.00
2023-12-19T05:08:21.643Z,0.00
2023-12-19T05:09:21.638Z,0.00
2023-12-19T05:10:21.661Z,0.00
2023-12-19T05:11:21.613Z,0.00
2023-12-19T05:12:21.589Z,0.00
2023-12-19T05:13:21.598Z,0.00
2023-12-19T05:14:20.909Z,0.00
2023-12-19T05:15:20.887Z,0.00
2023-12-19T05:16:21.544Z,0.00
2023-12-19T05:17:21.563Z,0.00
2023-12-19T05:18:21.628Z,0.00
2023-12-19T05:19:21.671Z,0.00
2023-12-19T05:20:21.108Z,0.00
2023-12-19T05:21:20.841Z,0.00
2023-12-19T05:22:20.869Z,0.00
2023-12-19T05:23:20.803Z,0.00
2023-12-19T05:24:21.471Z,0.00
2023-12-19T05:25:21.466Z,0.00
2023-12-19T05:26:21.433Z,0.00
2023-12-19T05:27:21.720Z,0.00
2023-12-19T05:28:21.432Z,0.00
2023-12-19T05:29:21.444Z,0.00
2023-12-19T05:30:20.824Z,0.00
2023-12-19T05:31:21.479Z,0.00
2023-12-19T05:32:20.715Z,0.00
2023-12-19T05:33:20.711Z,0.00
2023-12-19T05:34:21.434Z,0.00
2023-12-19T05:35:21.350Z,0.00
2023-12-19T05:36:20.666Z,0.00
2023-12-19T05:37:20.683Z,0.00
2023-12-19T05:38:20.653Z,0.00
2023-12-19T05:39:21.325Z,0.00
2023-12-19T05:40:20.641Z,0.00
2023-12-19T05:41:21.294Z,0.00
2023-12-19T05:42:21.285Z,0.00
2023-12-19T05:43:21.270Z,0.00
2023-12-19T05:44:20.583Z,0.00
2023-12-19T05:45:20.601Z,0.00
2023-12-19T05:46:20.563Z,0.00
2023-12-19T05:47:21.221Z,0.00
2023-12-19T05:48:21.281Z,0.00
2023-12-19T05:49:21.269Z,0.00
2023-12-19T05:50:20.549Z,0.00
2023-12-19T05:51:21.186Z,0.00
2023-12-19T05:52:21.182Z,0.00
2023-12-19T05:53:21.479Z,0.00
2023-12-19T05:54:20.510Z,0.00
2023-12-19T05:55:20.464Z,0.00
2023-12-19T05:56:20.456Z,0.00
2023-12-19T05:57:21.121Z,0.00
2023-12-19T05:58:21.108Z,0.00
2023-12-19T05:59:21.100Z,0.00
2023-12-19T06:00:21.091Z,0.00
2023-12-19T06:01:21.201Z,0.00
2023-12-19T06:02:21.076Z,0.00
2023-12-19T06:03:20.421Z,0.00
2023-12-19T06:04:21.096Z,0.00
2023-12-19T06:05:21.057Z,0.00
2023-12-19T06:06:20.372Z,0.00
2023-12-19T06:07:21.013Z,0.00
2023-12-19T06:08:20.346Z,0.00
2023-12-19T06:09:20.999Z,0.00
2023-12-19T06:10:20.992Z,0.00
2023-12-19T06:11:20.970Z,0.00
2023-12-19T06:12:20.967Z,0.00
2023-12-19T06:13:20.317Z,0.00
2023-12-19T06:14:20.940Z,0.00
2023-12-19T06:15:20.934Z,0.00
2023-12-19T06:16:20.929Z,0.00
2023-12-19T06:17:20.892Z,0.00
2023-12-19T06:18:20.353Z,0.00
2023-12-19T06:19:21.037Z,0.00
2023-12-19T06:20:20.889Z,0.00
2023-12-19T06:21:20.883Z,0.00
2023-12-19T06:22:20.838Z,0.00
2023-12-19T06:23:20.862Z,0.00
2023-12-19T06:24:20.832Z,0.00
2023-12-19T06:25:20.835Z,0.00
2023-12-19T06:26:20.810Z,0.00
2023-12-19T06:27:20.785Z,0.00
2023-12-19T06:28:20.796Z,0.00
2023-12-19T06:29:20.792Z,0.00
2023-12-19T06:30:27.501Z,0.00
2023-12-19T06:31:21.153Z,0.00
2023-12-19T06:32:20.776Z,0.00
2023-12-19T06:33:20.864Z,0.00
2023-12-19T06:34:20.795Z,0.00
2023-12-19T06:35:20.714Z,0.00
2023-12-19T06:36:20.740Z,0.00
2023-12-19T06:37:20.703Z,0.00
2023-12-19T06:38:20.694Z,0.00
2023-12-19T06:39:20.672Z,0.00
2023-12-19T06:40:20.676Z,0.00
2023-12-19T06:41:20.644Z,0.00
2023-12-19T06:42:20.644Z,0.00
2023-12-19T06:43:20.711Z,0.00
2023-12-19T06:44:20.624Z,0.00
2023-12-19T06:45:20.753Z,0.00
2023-12-19T06:46:20.585Z,0.00
2023-12-19T06:47:20.590Z,0.00
2023-12-19T06:48:19.947Z,0.00
2023-12-19T06:49:19.963Z,0.00
2023-12-19T06:50:20.545Z,0.00
2023-12-19T06:51:20.547Z,0.00
2023-12-19T06:52:19.864Z,0.00
2023-12-19T06:53:20.548Z,0.00
2023-12-19T06:54:19.842Z,0.00
2023-12-19T06:55:19.846Z,0.00
2023-12-19T06:56:20.492Z,0.00
2023-12-19T06:57:20.483Z,0.00
2023-12-19T06:58:20.475Z,0.00
2023-12-19T06:59:20.447Z,0.00
2023-12-19T07:00:19.782Z,0.00
2023-12-19T07:01:22.283Z,0.00
2023-12-19T07:02:20.436Z,0.00
2023-12-19T07:03:20.446Z,0.00
2023-12-19T07:04:19.788Z,0.00
2023-12-19T07:05:19.799Z,0.00
2023-12-19T07:06:20.385Z,0.00
2023-12-19T07:07:19.694Z,0.00
2023-12-19T07:08:19.699Z,0.00
2023-12-19T07:09:20.349Z,0.00
2023-12-19T07:10:20.392Z,0.00
2023-12-19T07:11:20.337Z,0.00
2023-12-19T07:12:20.324Z,4.00
2023-12-19T07:13:19.656Z,4.00
2023-12-19T07:14:20.308Z,4.00
2023-12-19T07:15:20.294Z,0.00
2023-12-19T07:16:20.302Z,4.00
2023-12-19T07:17:20.273Z,8.00
2023-12-19T07:18:20.318Z,8.00
2023-12-19T07:19:20.335Z,4.00
2023-12-19T07:20:20.242Z,4.00
2023-12-19T07:21:20.257Z,8.00
2023-12-19T07:22:20.229Z,8.00
2023-12-19T07:23:20.187Z,8.00
2023-12-19T07:24:20.197Z,8.00
2023-12-19T07:25:20.188Z,8.00
2023-12-19T07:26:20.189Z,8.00
2023-12-19T07:27:20.157Z,8.00
2023-12-19T07:28:20.208Z,12.00
2023-12-19T07:29:20.148Z,12.00
2023-12-19T07:30:20.142Z,16.00
2023-12-19T07:31:20.177Z,16.00
2023-12-19T07:32:20.100Z,16.00
2023-12-19T07:33:20.204Z,20.00
2023-12-19T07:34:20.438Z,20.00
2023-12-19T07:35:20.077Z,28.00
2023-12-19T07:36:20.056Z,24.00
2023-12-19T07:37:20.043Z,24.00
2023-12-19T07:38:20.054Z,24.00
2023-12-19T07:39:20.053Z,28.00
2023-12-19T07:40:20.058Z,28.00
2023-12-19T07:41:20.005Z,28.00
2023-12-19T07:42:20.010Z,28.00
2023-12-19T07:43:20.023Z,36.00
2023-12-19T07:44:19.993Z,40.00
2023-12-19T07:45:20.012Z,44.00
2023-12-19T07:46:19.952Z,44.00
2023-12-19T07:47:19.947Z,48.00
2023-12-19T07:48:19.942Z,52.00
2023-12-19T07:49:20.141Z,56.00
2023-12-19T07:50:19.915Z,52.00
2023-12-19T07:51:19.897Z,48.00
2023-12-19T07:52:19.902Z,52.00
2023-12-19T07:53:19.896Z,60.00
2023-12-19T07:54:19.876Z,68.00
2023-12-19T07:55:19.847Z,76.00
2023-12-19T07:56:19.856Z,68.00
2023-12-19T07:57:19.845Z,68.00
2023-12-19T07:58:19.835Z,64.00
2023-12-19T07:59:19.827Z,68.00
2023-12-19T08:00:19.810Z,84.00
2023-12-19T08:01:19.884Z,92.00
2023-12-19T08:02:19.824Z,108.00
2023-12-19T08:03:19.918Z,104.00
2023-12-19T08:04:19.961Z,96.00
2023-12-19T08:05:19.808Z,88.00
2023-12-19T08:06:19.765Z,96.00
2023-12-19T08:07:19.740Z,92.00
2023-12-19T08:08:19.742Z,92.00
2023-12-19T08:09:19.715Z,84.00
2023-12-19T08:10:19.712Z,84.00
2023-12-19T08:11:19.711Z,88.00
2023-12-19T08:12:19.699Z,80.00
2023-12-19T08:13:19.649Z,80.00
2023-12-19T08:14:19.650Z,108.00
2023-12-19T08:15:19.672Z,96.00
2023-12-19T08:16:19.648Z,80.00
2023-12-19T08:17:19.631Z,96.00
2023-12-19T08:18:19.734Z,104.00
2023-12-19T08:19:19.775Z,140.00
2023-12-19T08:20:19.608Z,140.00
2023-12-19T08:21:19.597Z,124.00
2023-12-19T08:22:19.610Z,120.00
2023-12-19T08:23:19.564Z,128.00
2023-12-19T08:24:19.567Z,116.00
2023-12-19T08:25:19.551Z,112.00
2023-12-19T08:26:19.547Z,128.00
2023-12-19T08:27:19.527Z,128.00
2023-12-19T08:28:19.523Z,160.00
2023-12-19T08:29:19.510Z,160.00
2023-12-19T08:30:19.526Z,164.00
2023-12-19T08:31:19.655Z,184.00
2023-12-19T08:32:19.469Z,188.00
2023-12-19T08:33:21.139Z,192.00
2023-12-19T08:34:20.005Z,180.00
2023-12-19T08:35:19.603Z,212.00
2023-12-19T08:36:33.324Z,204.00
2023-12-19T08:37:20.427Z,212.00
2023-12-19T08:38:19.418Z,216.00
2023-12-19T08:39:19.416Z,244.00
2023-12-19T08:40:19.389Z,252.00
2023-12-19T08:41:21.135Z,304.00
2023-12-19T08:42:19.349Z,360.00
2023-12-19T08:43:19.358Z,308.00
2023-12-19T08:44:19.355Z,304.00
2023-12-19T08:45:19.355Z,320.00
2023-12-19T08:46:21.110Z,336.00
2023-12-19T08:47:19.302Z,328.00
2023-12-19T08:48:19.595Z,260.00
2023-12-19T08:49:19.424Z,256.00
2023-12-19T08:50:19.602Z,224.00
2023-12-19T08:51:19.260Z,216.00
2023-12-19T08:52:19.356Z,232.00
2023-12-19T08:53:19.254Z,224.00
2023-12-19T08:54:19.500Z,232.00
2023-12-19T08:55:19.250Z,196.00
2023-12-19T08:56:19.225Z,208.00
2023-12-19T08:58:19.205Z,172.00
2023-12-19T08:59:19.190Z,180.00
2023-12-19T09:00:19.163Z,192.00
2023-12-19T09:01:19.460Z,204.00
2023-12-19T09:02:19.148Z,200.00
2023-12-19T09:03:19.139Z,180.00
2023-12-19T09:04:19.186Z,176.00
2023-12-19T09:05:20.896Z,176.00
2023-12-19T09:06:19.121Z,188.00
2023-12-19T09:07:19.096Z,204.00
2023-12-19T09:08:19.098Z,216.00
2023-12-19T09:09:19.072Z,232.00
2023-12-19T09:10:19.300Z,204.00
2023-12-19T09:11:19.069Z,176.00
2023-12-19T09:12:19.064Z,188.00
2023-12-19T09:13:19.272Z,192.00
2023-12-19T09:14:19.007Z,168.00
2023-12-19T09:15:19.001Z,188.00
2023-12-19T09:16:19.028Z,196.00
2023-12-19T09:17:18.990Z,196.00
2023-12-19T09:18:19.078Z,152.00
2023-12-19T09:19:19.082Z,164.00
2023-12-19T09:20:18.307Z,144.00
2023-12-19T09:21:18.947Z,144.00
2023-12-19T09:22:18.249Z,132.00
2023-12-19T09:23:18.931Z,144.00
2023-12-19T09:24:18.927Z,140.00
2023-12-19T09:25:18.325Z,152.00
2023-12-19T09:26:18.893Z,156.00
2023-12-19T09:27:18.888Z,184.00
2023-12-19T09:28:18.925Z,172.00
2023-12-19T09:29:18.847Z,176.00
2023-12-19T09:30:18.878Z,216.00
2023-12-19T09:31:18.905Z,228.00
2023-12-19T09:32:18.840Z,196.00
2023-12-19T09:33:18.926Z,208.00
2023-12-19T09:34:18.860Z,216.00
2023-12-19T09:35:18.936Z,212.00
2023-12-19T09:36:18.106Z,252.00
2023-12-19T09:37:18.160Z,256.00
2023-12-19T09:38:18.116Z,220.00
2023-12-19T09:39:18.755Z,228.00
2023-12-19T09:40:19.067Z,212.00
2023-12-19T09:41:18.730Z,220.00
2023-12-19T09:42:18.772Z,232.00
2023-12-19T09:43:18.778Z,236.00
2023-12-19T09:44:25.575Z,208.00
2023-12-19T09:45:19.686Z,200.00
2023-12-19T09:46:20.448Z,208.00
2023-12-19T09:47:18.652Z,224.00
2023-12-19T09:48:18.712Z,216.00
2023-12-19T09:49:18.733Z,192.00
2023-12-19T09:50:18.648Z,200.00
2023-12-19T09:51:18.628Z,188.00
2023-12-19T09:52:18.652Z,192.00
2023-12-19T09:53:19.349Z,200.00
2023-12-19T09:54:18.608Z,172.00
2023-12-19T09:55:18.680Z,156.00
2023-12-19T09:56:18.561Z,188.00
2023-12-19T09:57:18.546Z,188.00
2023-12-19T09:58:18.550Z,164.00
2023-12-19T09:59:18.599Z,196.00
2023-12-19T10:00:18.529Z,224.00
2023-12-19T10:01:18.543Z,180.00
2023-12-19T10:02:18.508Z,172.00
2023-12-19T10:03:18.514Z,172.00
2023-12-19T10:04:18.589Z,180.00
2023-12-19T10:05:18.508Z,188.00
2023-12-19T10:06:18.448Z,188.00
2023-12-19T10:07:18.485Z,180.00
2023-12-19T10:08:18.463Z,188.00
2023-12-19T10:09:18.443Z,184.00
2023-12-19T10:10:18.526Z,184.00
2023-12-19T10:11:18.395Z,236.00
2023-12-19T10:12:18.407Z,224.00
2023-12-19T10:13:18.413Z,216.00
2023-12-19T10:14:18.382Z,216.00
2023-12-19T10:15:18.361Z,200.00
2023-12-19T10:16:31.333Z,200.00
2023-12-19T10:17:19.370Z,236.00
2023-12-19T10:19:18.356Z,288.00
2023-12-19T10:20:18.472Z,340.00
2023-12-19T10:21:18.309Z,356.00
2023-12-19T10:22:18.316Z,304.00
2023-12-19T10:23:18.283Z,300.00
2023-12-19T10:24:17.592Z,324.00
2023-12-19T10:25:18.268Z,308.00
2023-12-19T10:26:18.254Z,324.00
2023-12-19T10:27:18.243Z,340.00
2023-12-19T10:28:17.546Z,264.00
2023-12-19T10:29:18.202Z,264.00
2023-12-19T10:30:17.682Z,300.00
2023-12-19T10:31:17.592Z,352.00
2023-12-19T10:32:18.568Z,332.00
2023-12-19T10:33:18.241Z,300.00
2023-12-19T10:34:18.409Z,248.00
2023-12-19T10:35:18.182Z,272.00
2023-12-19T10:36:18.158Z,304.00
2023-12-19T10:37:18.133Z,392.00
2023-12-19T10:38:18.119Z,324.00
2023-12-19T10:39:18.110Z,352.00
2023-12-19T10:40:18.104Z,368.00
2023-12-19T10:41:18.084Z,368.00
2023-12-19T10:42:18.081Z,360.00
2023-12-19T10:43:18.062Z,336.00
2023-12-19T10:44:18.039Z,320.00
2023-12-19T10:45:19.835Z,416.00
2023-12-19T10:46:17.723Z,420.00
2023-12-19T10:47:18.025Z,392.00
2023-12-19T10:48:18.034Z,368.00
2023-12-19T10:49:18.120Z,352.00
2023-12-19T10:50:18.234Z,424.00
2023-12-19T10:51:17.982Z,428.00
2023-12-19T10:52:17.985Z,436.00
2023-12-19T10:53:17.942Z,428.00
2023-12-19T10:54:17.987Z,360.00
2023-12-19T10:55:23.617Z,380.00
2023-12-19T10:56:18.922Z,432.00
2023-12-19T10:57:17.950Z,440.00
2023-12-19T10:58:17.969Z,420.00
2023-12-19T10:59:17.899Z,380.00
2023-12-19T11:00:17.888Z,392.00
2023-12-19T11:01:18.001Z,356.00
2023-12-19T11:02:17.867Z,416.00
2023-12-19T11:03:17.933Z,388.00
2023-12-19T11:04:17.922Z,448.00
2023-12-19T11:05:17.275Z,404.00
2023-12-19T11:06:17.842Z,460.00
2023-12-19T11:07:17.841Z,468.00
2023-12-19T11:08:17.823Z,408.00
2023-12-19T11:09:19.546Z,476.00
2023-12-19T11:10:17.811Z,456.00
2023-12-19T11:11:19.545Z,440.00
2023-12-19T11:12:17.752Z,384.00
2023-12-19T11:13:17.760Z,420.00
2023-12-19T11:14:17.738Z,396.00
2023-12-19T11:15:17.732Z,372.00
2023-12-19T11:16:17.755Z,408.00
2023-12-19T11:17:17.721Z,472.00
2023-12-19T11:18:19.521Z,420.00
2023-12-19T11:19:17.820Z,448.00
2023-12-19T11:20:19.564Z,468.00
2023-12-19T11:21:17.657Z,464.00
2023-12-19T11:22:17.656Z,396.00
2023-12-19T11:23:17.652Z,440.00
2023-12-19T11:24:17.636Z,428.00
2023-12-19T11:25:23.221Z,424.00
2023-12-19T11:26:18.594Z,440.00
2023-12-19T11:27:17.671Z,420.00
2023-12-19T11:28:17.639Z,388.00
2023-12-19T11:29:19.340Z,388.00
2023-12-19T11:30:17.623Z,384.00
2023-12-19T11:31:17.750Z,328.00
2023-12-19T11:32:17.552Z,364.00
2023-12-19T11:33:17.589Z,408.00
2023-12-19T11:34:17.617Z,380.00
2023-12-19T11:35:19.303Z,408.00
2023-12-19T11:36:17.513Z,396.00
2023-12-19T11:37:17.533Z,412.00
2023-12-19T11:38:17.485Z,388.00
2023-12-19T11:39:17.474Z,380.00
2023-12-19T11:40:17.469Z,380.00
2023-12-19T11:41:17.460Z,364.00
2023-12-19T11:42:17.448Z,404.00
2023-12-19T11:43:17.465Z,408.00
2023-12-19T11:44:17.408Z,404.00
2023-12-19T11:45:17.437Z,420.00
2023-12-19T11:46:17.464Z,408.00
2023-12-19T11:47:18.202Z,404.00
2023-12-19T11:48:16.753Z,404.00
2023-12-19T11:49:17.407Z,368.00
2023-12-19T11:50:17.470Z,392.00
2023-12-19T11:51:17.347Z,396.00
2023-12-19T11:52:17.383Z,380.00
2023-12-19T11:53:17.323Z,396.00
2023-12-19T11:54:17.301Z,396.00
2023-12-19T11:55:17.441Z,492.00
2023-12-19T11:56:17.296Z,484.00
2023-12-19T11:57:16.587Z,472.00
2023-12-19T11:58:17.286Z,468.00
2023-12-19T11:59:16.608Z,484.00
2023-12-19T12:00:17.273Z,520.00
2023-12-19T12:01:17.531Z,432.00
2023-12-19T12:02:17.232Z,464.00
2023-12-19T12:03:16.554Z,424.00
2023-12-19T12:04:16.582Z,492.00
2023-12-19T12:05:17.561Z,552.00
2023-12-19T12:06:17.221Z,516.00
2023-12-19T12:07:17.217Z,532.00
2023-12-19T12:08:17.155Z,520.00
2023-12-19T12:09:17.157Z,532.00
2023-12-19T12:10:17.167Z,532.00
2023-12-19T12:11:17.145Z,496.00
2023-12-19T12:12:17.110Z,412.00
2023-12-19T12:13:16.498Z,468.00
2023-12-19T12:14:16.418Z,496.00
2023-12-19T12:15:16.407Z,428.00
2023-12-19T12:16:16.435Z,380.00
2023-12-19T12:17:17.054Z,368.00
2023-12-19T12:18:17.141Z,460.00
2023-12-19T12:19:17.619Z,488.00
2023-12-19T12:20:17.160Z,416.00
2023-12-19T12:21:17.314Z,440.00
2023-12-19T12:22:16.372Z,444.00
2023-12-19T12:23:17.013Z,460.00
2023-12-19T12:24:16.995Z,392.00
2023-12-19T12:25:17.031Z,416.00
2023-12-19T12:26:16.320Z,400.00
2023-12-19T12:27:16.947Z,368.00
2023-12-19T12:28:17.041Z,416.00
2023-12-19T12:29:16.953Z,436.00
2023-12-19T12:30:16.969Z,452.00
2023-12-19T12:31:16.986Z,416.00
2023-12-19T12:32:16.949Z,452.00
2023-12-19T12:33:16.929Z,452.00
2023-12-19T12:34:16.964Z,456.00
2023-12-19T12:35:16.926Z,428.00
2023-12-19T12:36:16.853Z,460.00
2023-12-19T12:37:16.857Z,428.00
2023-12-19T12:38:16.158Z,444.00
2023-12-19T12:39:16.836Z,500.00
2023-12-19T12:40:16.852Z,456.00
2023-12-19T12:41:16.822Z,476.00
2023-12-19T12:42:16.120Z,476.00
2023-12-19T12:43:16.798Z,492.00
2023-12-19T12:44:16.783Z,472.00
2023-12-19T12:45:16.765Z,396.00
2023-12-19T12:46:16.781Z,468.00
2023-12-19T12:47:16.775Z,460.00
2023-12-19T12:48:16.777Z,428.00
2023-12-19T12:49:16.782Z,488.00
2023-12-19T12:50:16.212Z,464.00
2023-12-19T12:51:16.042Z,456.00
2023-12-19T12:52:16.702Z,420.00
2023-12-19T12:53:16.710Z,464.00
2023-12-19T12:54:16.666Z,512.00
2023-12-19T12:55:16.763Z,460.00
2023-12-19T12:56:16.677Z,432.00
2023-12-19T12:57:16.652Z,480.00
2023-12-19T12:58:16.635Z,432.00
2023-12-19T12:59:16.627Z,452.00
2023-12-19T13:00:24.432Z,500.00
2023-12-19T13:01:17.762Z,432.00